Time;durP1;ratioP1;P1;durP2;ratioP2;P2;SDS_P1;SDS_P2;PMS_P1;PMS_P2;Temp;Humidity;BMP_temperature;BMP_pressure;BME280_temperature;BME280_humidity;BME280_pressure;Samples;Min_cycle;Max_cycle;Signal;HPM_P1;HPM_P2
2022/01/11 00:01:32;;;;;;;32.33;14.38;;;-0.90;99.90;;;;;;7195184;32;20263;-76
2022/01/11 00:05:45;;;;;;;45.40;14.50;;;-0.90;99.90;;;;;;7207001;32;20109;-78
2022/01/11 00:09:49;;;;;;;63.95;14.07;;;-0.80;99.90;;;;;;7177111;32;20287;-78
2022/01/11 00:13:52;;;;;;;29.40;12.40;;;-0.70;99.90;;;;;;7188185;32;20436;-76
2022/01/11 00:17:54;;;;;;;51.78;14.20;;;-0.60;99.90;;;;;;7205784;32;20120;-77
2022/01/11 00:21:57;;;;;;;33.42;13.95;;;-0.60;99.90;;;;;;7190120;32;20147;-75
2022/01/11 00:25:59;;;;;;;29.87;13.23;;;-0.50;99.90;;;;;;7208440;32;22184;-76
2022/01/11 00:30:07;;;;;;;29.30;12.82;;;-0.50;99.90;;;;;;7195535;32;20200;-76
2022/01/11 00:34:09;;;;;;;43.83;13.07;;;-0.40;99.90;;;;;;7202857;32;20113;-76
2022/01/11 00:38:17;;;;;;;50.50;14.20;;;-0.40;99.90;;;;;;7197124;32;20183;-76
2022/01/11 00:42:21;;;;;;;37.00;12.95;;;-0.30;99.90;;;;;;7188712;32;20256;-76
2022/01/11 00:46:23;;;;;;;43.65;13.27;;;-0.30;99.90;;;;;;7199552;32;20223;-76
2022/01/11 00:50:25;;;;;;;39.58;14.10;;;-0.30;99.90;;;;;;7197442;32;20121;-77
2022/01/11 00:54:27;;;;;;;37.70;13.65;;;-0.20;99.90;;;;;;7201351;32;20598;-77
2022/01/11 00:58:28;;;;;;;33.60;13.55;;;-0.20;99.90;;;;;;7181471;32;20141;-77
2022/01/11 01:02:30;;;;;;;38.92;13.40;;;-0.20;99.90;;;;;;7209254;32;20136;-77
2022/01/11 01:06:32;;;;;;;36.85;13.77;;;-0.30;99.90;;;;;;7190607;32;20168;-77
2022/01/11 01:10:40;;;;;;;29.27;13.43;;;-0.30;99.90;;;;;;7179251;32;20193;-77
2022/01/11 01:14:41;;;;;;;31.87;12.98;;;-0.20;99.90;;;;;;7206737;32;20133;-78
2022/01/11 01:18:43;;;;;;;55.00;14.15;;;-0.10;99.90;;;;;;7194408;32;20135;-77
2022/01/11 01:22:50;;;;;;;35.72;13.65;;;-0.20;99.90;;;;;;7202334;32;20121;-77
2022/01/11 01:26:52;;;;;;;30.42;13.80;;;-0.30;99.90;;;;;;7197969;32;20670;-78
2022/01/11 01:31:00;;;;;;;30.83;13.43;;;-0.20;99.90;;;;;;7183657;32;20141;-77
2022/01/11 01:35:04;;;;;;;35.33;13.23;;;-0.30;99.90;;;;;;7200662;32;20482;-77
2022/01/11 01:39:06;;;;;;;32.78;13.82;;;-0.30;99.90;;;;;;7185532;32;20204;-77
2022/01/11 01:43:11;;;;;;;31.27;12.93;;;-0.30;99.90;;;;;;7194089;32;20133;-77
2022/01/11 01:47:13;;;;;;;32.42;13.52;;;-0.30;99.90;;;;;;7220093;32;20171;-78
2022/01/11 01:51:15;;;;;;;34.38;12.68;;;-0.30;99.90;;;;;;7205525;32;20179;-77
2022/01/11 01:55:18;;;;;;;49.35;14.65;;;-0.20;99.90;;;;;;7196868;32;20233;-78
2022/01/11 01:59:19;;;;;;;33.22;14.00;;;-0.30;99.90;;;;;;7192358;32;20547;-77
2022/01/11 02:03:26;;;;;;;46.65;14.98;;;-0.30;99.90;;;;;;7181644;32;20192;-77
2022/01/11 02:07:28;;;;;;;33.13;13.70;;;-0.30;99.90;;;;;;7177278;33;20254;-77
2022/01/11 02:11:31;;;;;;;38.35;15.57;;;-0.20;99.90;;;;;;7179018;33;20125;-77
2022/01/11 02:15:33;;;;;;;37.97;14.90;;;-0.10;99.90;;;;;;7193483;33;20160;-77
2022/01/11 02:19:35;;;;;;;37.63;16.12;;;0.00;99.90;;;;;;7193007;33;20472;-77
2022/01/11 02:23:37;;;;;;;35.97;15.30;;;-0.10;99.90;;;;;;7205461;33;20280;-78
2022/01/11 02:27:40;;;;;;;37.65;16.70;;;0.00;99.90;;;;;;7182395;33;20503;-77
2022/01/11 02:31:42;;;;;;;34.58;14.13;;;0.00;99.90;;;;;;7206875;32;20109;-77
2022/01/11 02:35:49;;;;;;;39.13;15.63;;;0.00;99.90;;;;;;7202354;32;20161;-77
2022/01/11 02:39:51;;;;;;;37.67;16.10;;;0.10;99.90;;;;;;7190425;33;20147;-77
2022/01/11 02:43:53;;;;;;;33.50;14.55;;;0.10;99.90;;;;;;7192138;33;20833;-77
2022/01/11 02:47:55;;;;;;;38.60;15.02;;;0.10;99.90;;;;;;7193526;33;20109;-77
2022/01/11 02:51:57;;;;;;;38.08;15.73;;;0.10;99.90;;;;;;7186156;32;20250;-77
2022/01/11 02:55:59;;;;;;;40.83;16.12;;;0.10;99.90;;;;;;7196790;33;20187;-77
2022/01/11 03:00:02;;;;;;;66.30;16.60;;;0.10;99.90;;;;;;7193467;32;20101;-77
2022/01/11 03:04:04;;;;;;;43.08;17.60;;;0.10;99.90;;;;;;7196782;32;20135;-77
2022/01/11 03:08:06;;;;;;;38.47;15.85;;;0.10;99.90;;;;;;7193225;32;20163;-78
2022/01/11 03:12:09;;;;;;;41.05;16.35;;;0.10;99.90;;;;;;7203579;32;20177;-77
2022/01/11 03:16:12;;;;;;;42.20;15.77;;;0.10;99.90;;;;;;7190987;32;20401;-78
2022/01/11 03:20:14;;;;;;;39.80;16.08;;;0.10;99.90;;;;;;7194543;32;20196;-79
2022/01/11 03:24:16;;;;;;;30.50;15.15;;;0.10;99.90;;;;;;7174531;32;20224;-78
2022/01/11 03:28:20;;;;;;;33.28;15.50;;;0.10;99.90;;;;;;7203124;32;20291;-78
2022/01/11 03:32:21;;;;;;;42.65;15.57;;;0.10;99.90;;;;;;7194977;32;20286;-77
2022/01/11 03:36:37;;;;;;;35.60;13.55;;;0.20;99.90;;;;;;7208052;32;20646;-78
2022/01/11 03:40:40;;;;;;;34.92;13.52;;;0.10;99.90;;;;;;7192630;32;20109;-77
2022/01/11 03:44:42;;;;;;;39.70;14.15;;;-0.10;99.90;;;;;;7192032;32;20164;-77
2022/01/11 03:48:44;;;;;;;32.67;14.30;;;-0.20;99.90;;;;;;7193983;32;20223;-78
2022/01/11 03:52:46;;;;;;;34.38;14.18;;;-0.30;99.90;;;;;;7179004;32;20108;-78
2022/01/11 03:56:48;;;;;;;38.85;15.00;;;-0.30;99.90;;;;;;7178256;32;20270;-78
2022/01/11 04:00:50;;;;;;;32.72;13.62;;;-0.20;99.90;;;;;;7213771;32;20172;-75
2022/01/11 04:04:52;;;;;;;30.23;14.23;;;-0.30;99.90;;;;;;7209723;32;20097;-77
2022/01/11 04:08:54;;;;;;;32.50;14.95;;;-0.10;99.90;;;;;;7180045;32;20319;-77
2022/01/11 04:12:56;;;;;;;34.47;14.45;;;-0.20;99.90;;;;;;7177021;32;20232;-78
2022/01/11 04:16:58;;;;;;;30.52;14.90;;;-0.30;99.90;;;;;;7190839;32;20208;-78
2022/01/11 04:21:00;;;;;;;31.80;14.00;;;-0.30;99.90;;;;;;7207442;32;20210;-77
2022/01/11 04:25:02;;;;;;;32.45;14.52;;;-0.20;99.90;;;;;;7193497;32;20131;-77
2022/01/11 04:29:04;;;;;;;32.47;14.63;;;-0.20;99.90;;;;;;7195294;32;20113;-78
2022/01/11 04:33:06;;;;;;;33.72;15.27;;;-0.20;99.90;;;;;;7207112;32;20189;-77
2022/01/11 04:37:08;;;;;;;29.98;15.02;;;-0.10;99.90;;;;;;7195886;32;20212;-78
2022/01/11 04:41:10;;;;;;;35.47;16.23;;;-0.10;99.90;;;;;;7180584;32;20117;-78
2022/01/11 04:45:14;;;;;;;39.78;16.17;;;-0.10;99.90;;;;;;7205080;32;20172;-79
2022/01/11 04:49:16;;;;;;;34.17;15.50;;;-0.20;99.90;;;;;;7196678;32;20136;-78
2022/01/11 04:53:18;;;;;;;37.10;16.05;;;-0.20;99.90;;;;;;7190605;32;20288;-78
2022/01/11 04:57:19;;;;;;;40.90;17.50;;;-0.10;99.90;;;;;;7208475;32;20141;-76
2022/01/11 05:01:22;;;;;;;43.83;17.30;;;-0.20;99.90;;;;;;7195616;32;20186;-77
2022/01/11 05:05:26;;;;;;;43.35;17.98;;;-0.20;99.90;;;;;;7195393;32;20151;-77
2022/01/11 05:09:28;;;;;;;36.50;16.12;;;-0.20;99.90;;;;;;7193065;32;20961;-77
2022/01/11 05:13:31;;;;;;;40.22;17.85;;;-0.20;99.90;;;;;;7192701;32;20125;-77
2022/01/11 05:17:33;;;;;;;34.10;16.75;;;-0.10;99.90;;;;;;7195114;32;20105;-77
2022/01/11 05:21:35;;;;;;;46.85;16.33;;;-0.10;99.90;;;;;;7181237;32;20141;-77
2022/01/11 05:25:37;;;;;;;36.00;15.93;;;-0.10;99.90;;;;;;7189135;32;20517;-77
2022/01/11 05:29:39;;;;;;;39.30;16.42;;;-0.10;99.90;;;;;;7203469;32;20117;-77
2022/01/11 05:33:40;;;;;;;39.33;16.70;;;-0.20;99.90;;;;;;7198834;32;20291;-77
2022/01/11 05:37:43;;;;;;;45.65;17.37;;;-0.20;99.90;;;;;;7208877;32;20192;-78
2022/01/11 05:41:45;;;;;;;43.38;16.75;;;-0.20;99.90;;;;;;7195748;32;20641;-78
2022/01/11 05:45:47;;;;;;;54.40;16.52;;;-0.20;99.90;;;;;;7193127;32;20582;-77
2022/01/11 05:49:50;;;;;;;38.83;16.33;;;-0.20;99.90;;;;;;7181556;32;20144;-77
2022/01/11 05:53:52;;;;;;;49.20;16.83;;;-0.20;99.90;;;;;;7182565;32;20195;-78
2022/01/11 05:57:53;;;;;;;44.20;16.77;;;-0.30;99.90;;;;;;7187054;32;20128;-78
2022/01/11 06:01:55;;;;;;;40.63;16.75;;;-0.30;99.90;;;;;;7183997;32;20338;-78
2022/01/11 06:05:58;;;;;;;37.80;16.70;;;-0.30;99.90;;;;;;7190057;32;20759;-78
2022/01/11 06:09:59;;;;;;;47.55;16.50;;;-0.20;99.90;;;;;;7191472;33;20109;-77
2022/01/11 06:14:01;;;;;;;62.45;17.15;;;-0.30;99.90;;;;;;7188477;33;20204;-79
2022/01/11 06:18:07;;;;;;;42.85;16.90;;;-0.40;99.90;;;;;;7177971;33;20142;-76
2022/01/11 06:22:08;;;;;;;38.00;15.50;;;-0.50;99.90;;;;;;7187236;32;20172;-77
2022/01/11 06:26:10;;;;;;;36.92;15.75;;;-0.60;99.90;;;;;;7176795;33;20848;-77
2022/01/11 06:30:13;;;;;;;44.38;16.45;;;-0.70;99.90;;;;;;7193636;33;20109;-77
2022/01/11 06:34:15;;;;;;;42.78;16.98;;;-0.70;99.90;;;;;;7178115;32;20163;-76
2022/01/11 06:38:17;;;;;;;38.67;15.90;;;-0.60;99.90;;;;;;7197406;32;20534;-77
2022/01/11 06:42:19;;;;;;;33.95;15.40;;;-0.60;99.90;;;;;;7195761;32;20169;-78
2022/01/11 06:46:23;;;;;;;36.28;15.52;;;-0.60;99.90;;;;;;7195353;32;20128;-78
2022/01/11 06:50:26;;;;;;;35.13;15.73;;;-0.60;99.90;;;;;;7195683;32;20235;-79
2022/01/11 06:54:27;;;;;;;32.25;14.10;;;-0.50;99.90;;;;;;7195124;32;20110;-77
2022/01/11 06:58:29;;;;;;;31.45;14.38;;;-0.70;99.90;;;;;;7181983;32;20235;-77
2022/01/11 07:02:31;;;;;;;31.25;14.52;;;-0.70;99.90;;;;;;7197199;32;20111;-77
2022/01/11 07:06:33;;;;;;;29.83;14.18;;;-0.60;99.90;;;;;;7190764;32;20220;-77
2022/01/11 07:10:35;;;;;;;28.70;13.50;;;-0.70;99.90;;;;;;7189183;32;20228;-76
2022/01/11 07:14:37;;;;;;;26.55;12.68;;;-0.80;99.90;;;;;;7185174;32;20181;-76
2022/01/11 07:18:38;;;;;;;27.67;13.48;;;-0.90;99.90;;;;;;7189524;32;20342;-76
2022/01/11 07:22:40;;;;;;;26.77;13.05;;;-0.90;99.90;;;;;;7200339;32;20109;-76
2022/01/11 07:26:43;;;;;;;26.73;13.05;;;-0.90;99.90;;;;;;7183310;32;20825;-77
2022/01/11 07:30:45;;;;;;;26.67;13.15;;;-0.90;99.90;;;;;;7195276;32;20287;-77
2022/01/11 07:34:47;;;;;;;24.23;12.60;;;-1.00;99.90;;;;;;7196508;32;20269;-77
2022/01/11 07:38:51;;;;;;;26.30;12.80;;;-1.00;99.90;;;;;;7178585;32;20208;-77
2022/01/11 07:42:52;;;;;;;26.45;12.82;;;-0.90;99.90;;;;;;7205269;32;20128;-77
2022/01/11 07:46:54;;;;;;;24.73;13.20;;;-1.00;99.90;;;;;;7193170;32;20269;-77
2022/01/11 07:50:56;;;;;;;23.27;12.15;;;-1.00;99.90;;;;;;7196230;32;20129;-76
2022/01/11 07:54:58;;;;;;;26.00;13.07;;;-1.10;99.90;;;;;;7201459;32;20649;-77
2022/01/11 07:59:00;;;;;;;23.27;11.90;;;-1.10;99.90;;;;;;7206629;32;20197;-77
2022/01/11 08:03:10;;;;;;;25.15;12.43;;;-1.10;99.90;;;;;;7192408;32;20133;-77
2022/01/11 08:07:12;;;;;;;21.70;11.02;;;-1.00;99.90;;;;;;7177257;32;20483;-77
2022/01/11 08:11:14;;;;;;;24.40;11.82;;;-1.00;99.90;;;;;;7191324;32;20131;-76
2022/01/11 08:15:16;;;;;;;23.23;11.90;;;-0.90;99.90;;;;;;7204561;32;20169;-77
2022/01/11 08:19:24;;;;;;;20.35;10.98;;;-1.00;99.90;;;;;;7178386;32;20861;-77
2022/01/11 08:23:26;;;;;;;22.08;11.00;;;-1.00;99.90;;;;;;7197579;32;20510;-77
2022/01/11 08:27:28;;;;;;;21.95;10.82;;;-0.90;99.90;;;;;;7192198;32;20188;-77
2022/01/11 08:31:30;;;;;;;21.60;11.00;;;-0.90;99.90;;;;;;7194676;32;20821;-76
2022/01/11 08:35:33;;;;;;;23.55;11.18;;;-0.90;99.90;;;;;;7186350;32;20224;-76
2022/01/11 08:39:42;;;;;;;28.45;13.10;;;-0.90;99.90;;;;;;7186595;32;20171;-77
2022/01/11 08:43:44;;;;;;;30.48;12.55;;;-1.00;99.90;;;;;;7195584;32;21393;-77
2022/01/11 08:47:46;;;;;;;28.08;12.15;;;-0.90;99.90;;;;;;7208431;32;20695;-77
2022/01/11 08:51:48;;;;;;;23.90;11.20;;;-0.70;99.90;;;;;;7190394;32;20205;-77
2022/01/11 08:55:51;;;;;;;25.20;11.98;;;-0.70;99.90;;;;;;7192360;32;20089;-77
2022/01/11 08:59:52;;;;;;;23.40;11.48;;;-0.70;99.90;;;;;;7179935;32;20705;-77
2022/01/11 09:03:54;;;;;;;28.40;12.63;;;-0.60;99.90;;;;;;7178595;32;20188;-77
2022/01/11 09:07:56;;;;;;;21.33;11.68;;;-0.50;99.90;;;;;;7188352;32;20135;-77
2022/01/11 09:12:03;;;;;;;24.48;11.98;;;-0.50;99.90;;;;;;7184726;32;20480;-77
2022/01/11 09:16:07;;;;;;;31.67;13.30;;;-0.50;99.90;;;;;;7189233;32;20106;-77
2022/01/11 09:20:11;;;;;;;26.95;12.32;;;-0.50;99.90;;;;;;7197707;32;20629;-77
2022/01/11 09:24:19;;;;;;;22.10;12.13;;;-0.50;99.90;;;;;;7177762;32;20105;-77
2022/01/11 09:28:21;;;;;;;29.20;12.68;;;-0.40;99.90;;;;;;7182171;32;20185;-77
2022/01/11 09:32:25;;;;;;;21.95;11.48;;;-0.30;99.90;;;;;;7195482;32;20665;-77
2022/01/11 09:36:28;;;;;;;22.90;11.93;;;-0.30;99.90;;;;;;7178475;32;20307;-77
2022/01/11 09:40:29;;;;;;;25.20;12.13;;;-0.20;99.90;;;;;;7195706;32;20182;-77
2022/01/11 09:44:33;;;;;;;23.67;12.00;;;-0.10;99.90;;;;;;7199928;32;20490;-77
2022/01/11 09:48:35;;;;;;;23.23;11.77;;;0.00;99.90;;;;;;7196512;32;20129;-76
2022/01/11 09:52:38;;;;;;;20.55;10.95;;;0.00;99.90;;;;;;7194142;32;20113;-77
2022/01/11 09:56:39;;;;;;;23.98;11.38;;;0.10;99.90;;;;;;7191697;32;20200;-77
2022/01/11 10:00:41;;;;;;;21.75;10.82;;;0.20;99.90;;;;;;7181525;32;20584;-78
2022/01/11 10:04:44;;;;;;;20.40;10.77;;;0.30;99.90;;;;;;7205748;32;20506;-77
2022/01/11 10:08:46;;;;;;;23.95;11.52;;;0.40;99.90;;;;;;7209640;32;20179;-76
2022/01/11 10:12:54;;;;;;;24.08;12.35;;;0.50;99.90;;;;;;7186552;33;20139;-76
2022/01/11 10:17:11;;;;;;;19.60;11.35;;;0.50;99.90;;;;;;7194366;33;20182;-76
2022/01/11 10:21:37;;;;;;;25.08;11.88;;;0.60;99.90;;;;;;7205266;32;20113;-77
2022/01/11 10:25:47;;;;;;;19.23;10.80;;;0.70;99.90;;;;;;7204516;32;20208;-76
2022/01/11 10:30:06;;;;;;;24.65;11.77;;;0.80;99.90;;;;;;7171833;32;20739;-76
2022/01/11 10:34:08;;;;;;;20.73;11.52;;;0.90;99.90;;;;;;7193330;32;20113;-76
2022/01/11 10:38:12;;;;;;;20.42;11.30;;;1.00;99.90;;;;;;7206128;32;20139;-76
2022/01/11 10:42:33;;;;;;;21.80;11.07;;;1.10;99.90;;;;;;7188630;32;20129;-76
2022/01/11 10:46:44;;;;;;;19.80;10.85;;;1.10;99.90;;;;;;7184169;32;20531;-76
2022/01/11 10:50:55;;;;;;;21.62;11.12;;;1.20;99.90;;;;;;7196583;32;20143;-76
2022/01/11 10:54:59;;;;;;;18.73;11.05;;;1.30;99.90;;;;;;7180400;33;20523;-77
2022/01/11 10:59:10;;;;;;;19.70;10.93;;;1.30;99.90;;;;;;7214366;33;20113;-76
2022/01/11 11:03:15;;;;;;;21.33;11.05;;;1.40;99.90;;;;;;7205075;33;20117;-76
2022/01/11 11:07:18;;;;;;;19.50;10.70;;;1.50;99.90;;;;;;7190320;33;20128;-75
2022/01/11 11:11:23;;;;;;;19.25;10.82;;;1.50;99.90;;;;;;7186465;33;20113;-75
2022/01/11 11:15:43;;;;;;;19.50;10.40;;;1.70;99.90;;;;;;7189364;33;20117;-76
2022/01/11 11:19:59;;;;;;;20.45;11.30;;;1.80;99.90;;;;;;7196994;33;20216;-76
2022/01/11 11:24:16;;;;;;;21.77;11.07;;;1.90;99.90;;;;;;7199747;32;20515;-76
2022/01/11 11:28:21;;;;;;;20.15;10.60;;;1.90;99.90;;;;;;7206791;32;20606;-77
2022/01/11 11:32:23;;;;;;;22.13;11.55;;;1.90;99.90;;;;;;7179105;32;20208;-76
2022/01/11 11:36:25;;;;;;;18.62;11.48;;;2.00;99.90;;;;;;7198704;32;20101;-77
2022/01/11 11:40:28;;;;;;;21.42;10.73;;;2.00;99.90;;;;;;7197120;32;20235;-76
2022/01/11 11:44:37;;;;;;;20.52;11.18;;;2.10;99.90;;;;;;7179926;32;20523;-76
2022/01/11 11:48:39;;;;;;;23.67;12.70;;;2.30;99.90;;;;;;7192097;32;20143;-76
2022/01/11 11:52:52;;;;;;;22.92;11.88;;;2.30;99.90;;;;;;7206830;32;20191;-76
2022/01/11 11:57:04;;;;;;;18.67;10.10;;;2.40;99.90;;;;;;7195220;32;20600;-75
2022/01/11 12:01:06;;;;;;;19.45;11.40;;;2.60;99.90;;;;;;7193821;32;20143;-76
2022/01/11 12:05:32;;;;;;;18.65;10.95;;;2.70;99.90;;;;;;7180653;32;20527;-77
2022/01/11 12:09:43;;;;;;;22.00;11.52;;;2.80;99.90;;;;;;7177939;32;20098;-76
2022/01/11 12:13:51;;;;;;;22.75;11.05;;;2.90;99.90;;;;;;7199492;32;20208;-76
2022/01/11 12:17:55;;;;;;;21.80;10.73;;;3.00;99.90;;;;;;7196949;32;20128;-77
2022/01/11 12:22:06;;;;;;;22.37;10.82;;;3.20;99.90;;;;;;7201353;32;20609;-79
2022/01/11 12:26:16;;;;;;;22.37;12.00;;;3.20;99.90;;;;;;7189182;32;20160;-76
2022/01/11 12:30:18;;;;;;;19.50;10.85;;;3.30;99.90;;;;;;7191572;32;20136;-78
2022/01/11 12:34:45;;;;;;;27.60;11.60;;;3.50;99.90;;;;;;7175219;32;20755;-77
2022/01/11 12:39:01;;;;;;;19.02;12.00;;;3.50;99.90;;;;;;7201753;32;20105;-77
2022/01/11 12:43:21;;;;;;;17.33;10.73;;;3.60;99.90;;;;;;7189625;32;20133;-76
2022/01/11 12:47:43;;;;;;;22.02;11.07;;;3.80;99.90;;;;;;7206247;32;20456;-77
2022/01/11 12:51:57;;;;;;;22.40;10.93;;;3.80;99.90;;;;;;7187577;32;20151;-76
2022/01/11 12:55:59;;;;;;;17.45;9.90;;;3.90;99.90;;;;;;7203376;32;20136;-77
2022/01/11 13:00:11;;;;;;;18.15;10.02;;;4.00;99.90;;;;;;7182123;32;20133;-77
2022/01/11 13:04:13;;;;;;;18.83;10.27;;;4.30;99.90;;;;;;7175069;32;20101;-75
2022/01/11 13:08:27;;;;;;;19.45;10.30;;;4.30;99.90;;;;;;7188081;32;20184;-77
2022/01/11 13:12:35;;;;;;;17.98;9.63;;;4.40;99.90;;;;;;7187346;32;20118;-76
2022/01/11 13:16:37;;;;;;;20.48;10.32;;;4.40;99.90;;;;;;7179133;32;20113;-76
2022/01/11 13:20:46;;;;;;;18.25;11.30;;;4.40;99.90;;;;;;7190189;32;20224;-76
2022/01/11 13:24:49;;;;;;;19.73;11.27;;;4.20;99.90;;;;;;7173048;32;20131;-74
2022/01/11 13:28:55;;;;;;;20.58;11.25;;;4.30;99.90;;;;;;7182670;32;20166;-74
2022/01/11 13:32:57;;;;;;;19.37;11.63;;;4.40;99.90;;;;;;7219713;32;20136;-78
2022/01/11 13:37:00;;;;;;;19.05;10.40;;;4.40;99.90;;;;;;7198817;32;20187;-76
2022/01/11 13:41:04;;;;;;;21.83;9.90;;;4.50;99.90;;;;;;7186010;32;20113;-75
2022/01/11 13:45:12;;;;;;;19.75;9.88;;;4.70;99.90;;;;;;7191017;32;20563;-75
2022/01/11 13:49:28;;;;;;;18.50;9.80;;;4.80;99.90;;;;;;7185364;32;20126;-75
2022/01/11 13:53:34;;;;;;;17.80;9.30;;;4.90;99.90;;;;;;7200974;32;20249;-74
2022/01/11 13:57:44;;;;;;;20.52;10.13;;;4.90;99.90;;;;;;7192418;32;20105;-74
2022/01/11 14:06:50;;;;;;;19.02;9.75;;;4.70;99.90;;;;;;7184271;32;20661;-77
2022/01/11 14:11:06;;;;;;;17.92;8.55;;;4.80;99.90;;;;;;7187895;32;20125;-75
2022/01/11 14:15:09;;;;;;;16.35;8.20;;;4.90;99.90;;;;;;7185882;32;20546;-77
2022/01/11 14:19:12;;;;;;;13.52;8.52;;;5.50;99.90;;;;;;7194399;32;20663;-75
2022/01/11 14:23:16;;;;;;;18.87;8.88;;;6.40;99.90;;;;;;7196040;32;20546;-75
2022/01/11 14:27:22;;;;;;;18.15;9.45;;;6.80;99.90;;;;;;7196536;32;20128;-77
2022/01/11 14:31:28;;;;;;;19.37;9.63;;;6.60;99.90;;;;;;7188171;33;20156;-76
2022/01/11 14:35:30;;;;;;;16.87;8.68;;;6.30;99.90;;;;;;7185945;33;20215;-76
2022/01/11 14:39:34;;;;;;;18.55;9.65;;;5.70;99.90;;;;;;7205782;33;20133;-76
2022/01/11 14:43:37;;;;;;;18.12;9.52;;;5.40;99.90;;;;;;7191624;33;20386;-76
2022/01/11 14:47:54;;;;;;;22.23;10.57;;;5.10;99.90;;;;;;7189233;33;20105;-77
2022/01/11 14:52:02;;;;;;;19.45;10.23;;;4.90;99.90;;;;;;7213419;33;20110;-77
2022/01/11 14:56:13;;;;;;;24.10;11.40;;;4.70;99.90;;;;;;7216864;32;20189;-77
2022/01/11 15:00:24;;;;;;;18.35;10.00;;;4.50;99.90;;;;;;7200801;32;20170;-77
2022/01/11 15:04:32;;;;;;;17.08;10.15;;;4.50;99.90;;;;;;7206850;32;20196;-78
2022/01/11 15:08:34;;;;;;;;;;;4.30;99.90;;;;;;7200261;32;20113;-77
2022/01/11 15:12:40;;;;;;;17.00;9.38;;;4.30;99.90;;;;;;7203777;32;20024;-76
2022/01/11 15:16:44;;;;;;;21.05;9.98;;;4.20;99.90;;;;;;7207390;32;20105;-77
2022/01/11 15:20:45;;;;;;;18.98;11.15;;;4.00;99.90;;;;;;7191601;32;20101;-76
2022/01/11 15:24:47;;;;;;;15.55;8.80;;;3.80;99.90;;;;;;7182113;32;20138;-77
2022/01/11 15:28:50;;;;;;;17.98;10.88;;;3.70;99.90;;;;;;7177847;32;20518;-75
2022/01/11 15:32:51;;;;;;;16.25;9.43;;;3.60;99.90;;;;;;7193079;32;20129;-76
2022/01/11 15:36:54;;;;;;;16.02;8.43;;;3.40;99.90;;;;;;7198953;32;20117;-76
2022/01/11 15:40:59;;;;;;;15.18;9.00;;;3.30;99.90;;;;;;7196959;32;20883;-76
2022/01/11 15:45:01;;;;;;;16.70;9.15;;;3.10;99.90;;;;;;7203109;32;20188;-76
2022/01/11 15:49:10;;;;;;;15.55;9.40;;;2.90;99.90;;;;;;7192883;32;20129;-76
2022/01/11 15:53:11;;;;;;;13.43;8.82;;;2.70;99.90;;;;;;7189156;32;20116;-76
2022/01/11 15:57:14;;;;;;;16.50;8.88;;;2.60;99.90;;;;;;7198403;32;20804;-76
2022/01/11 16:01:15;;;;;;;16.52;8.35;;;2.40;99.90;;;;;;7188554;32;20538;-76
2022/01/11 16:05:18;;;;;;;14.93;7.87;;;2.20;99.90;;;;;;7198824;32;20101;-77
2022/01/11 16:09:21;;;;;;;13.90;8.05;;;2.10;99.90;;;;;;7204024;32;20108;-76
2022/01/11 16:13:22;;;;;;;14.45;7.87;;;2.00;99.90;;;;;;7196301;32;20121;-76
2022/01/11 16:17:24;;;;;;;12.45;7.22;;;1.80;99.90;;;;;;7207988;32;20105;-78
2022/01/11 16:21:26;;;;;;;14.23;7.43;;;1.80;99.90;;;;;;7188091;32;20199;-76
2022/01/11 16:25:28;;;;;;;13.43;7.28;;;1.70;99.90;;;;;;7196732;32;20156;-77
2022/01/11 16:29:34;;;;;;;15.38;9.43;;;1.60;99.90;;;;;;7185457;32;20184;-76
2022/01/11 16:33:36;;;;;;;18.02;9.18;;;1.40;99.90;;;;;;7186717;32;20127;-77
2022/01/11 16:37:38;;;;;;;19.05;9.32;;;1.40;99.90;;;;;;7186738;32;20866;-76
2022/01/11 16:46:07;;;;;;;20.70;8.77;;;1.20;99.90;;;;;;7189561;32;20402;-78
2022/01/11 16:50:09;;;;;;;17.80;8.57;;;1.20;99.90;;;;;;7191438;32;20140;-76
2022/01/11 16:54:11;;;;;;;18.42;8.70;;;1.20;99.90;;;;;;7208324;32;20204;-76
2022/01/11 16:58:13;;;;;;;15.85;7.97;;;1.10;99.90;;;;;;7188945;32;20183;-76
2022/01/11 17:02:15;;;;;;;12.95;7.37;;;1.10;99.90;;;;;;7194126;32;20125;-75
2022/01/11 17:06:17;;;;;;;14.23;7.70;;;1.10;99.90;;;;;;7189368;32;20147;-75
2022/01/11 17:10:20;;;;;;;14.05;7.28;;;1.10;99.90;;;;;;7187449;32;20175;-75
2022/01/11 17:14:21;;;;;;;15.57;8.45;;;1.00;99.90;;;;;;7197627;32;20242;-76
2022/01/11 17:18:23;;;;;;;16.87;8.45;;;0.90;99.90;;;;;;7194872;32;20561;-75
2022/01/11 17:22:25;;;;;;;14.38;7.65;;;0.90;99.90;;;;;;7200825;32;20113;-78
2022/01/11 17:26:27;;;;;;;14.00;8.02;;;0.90;99.90;;;;;;7196031;32;20369;-78
2022/01/11 17:30:29;;;;;;;13.62;8.15;;;0.80;99.90;;;;;;7204222;32;20136;-76
2022/01/11 17:34:33;;;;;;;15.38;8.10;;;0.70;99.90;;;;;;7179658;32;20948;-76
2022/01/11 17:38:34;;;;;;;15.73;8.75;;;0.70;99.90;;;;;;7184054;32;20547;-78
2022/01/11 17:42:39;;;;;;;18.02;8.32;;;0.60;99.90;;;;;;7198464;32;20546;-77
2022/01/11 17:46:41;;;;;;;18.90;8.70;;;0.50;99.90;;;;;;7184150;32;20605;-75
2022/01/11 17:50:43;;;;;;;14.40;7.87;;;0.50;99.90;;;;;;7174332;32;20117;-76
2022/01/11 17:54:45;;;;;;;12.95;7.62;;;0.50;99.90;;;;;;7177251;32;20258;-76
2022/01/11 17:58:47;;;;;;;13.60;7.65;;;0.40;99.90;;;;;;7188181;32;20121;-76
2022/01/11 18:02:49;;;;;;;15.00;8.60;;;0.30;99.90;;;;;;7201237;32;20511;-76
2022/01/11 18:06:51;;;;;;;19.92;9.50;;;0.30;99.90;;;;;;7199754;32;20263;-77
2022/01/11 18:10:53;;;;;;;15.55;9.70;;;0.30;99.90;;;;;;7187284;32;20219;-75
2022/01/11 18:15:00;;;;;;;18.17;8.63;;;0.20;99.90;;;;;;7207465;32;20184;-76
2022/01/11 18:19:02;;;;;;;;;;;0.20;99.90;;;;;;7191073;33;20593;-77
2022/01/11 18:23:03;;;;;;;13.62;8.30;;;0.10;99.90;;;;;;7208693;32;20005;-76
2022/01/11 18:27:07;;;;;;;16.25;9.00;;;0.10;99.90;;;;;;7185062;33;20133;-76
2022/01/11 18:31:13;;;;;;;19.60;9.77;;;0.00;99.90;;;;;;7196870;32;20188;-77
2022/01/11 18:35:15;;;;;;;14.93;8.15;;;-0.10;99.90;;;;;;7199346;32;20124;-77
2022/01/11 18:39:19;;;;;;;16.75;9.40;;;0.00;99.90;;;;;;7197911;32;20580;-77
2022/01/11 18:43:20;;;;;;;17.67;8.18;;;0.00;99.90;;;;;;7191491;32;20133;-77
2022/01/11 18:47:22;;;;;;;16.58;8.90;;;0.00;99.90;;;;;;7204539;32;20764;-76
2022/01/11 18:51:26;;;;;;;19.02;9.45;;;0.00;99.90;;;;;;7210739;32;20117;-76
2022/01/11 18:55:28;;;;;;;16.42;8.50;;;0.10;99.90;;;;;;7199703;32;20579;-77
2022/01/11 18:59:30;;;;;;;15.93;7.90;;;0.10;99.90;;;;;;7204377;32;20143;-77
2022/01/11 19:03:31;;;;;;;18.48;8.27;;;0.20;99.90;;;;;;7199482;32;20216;-77
2022/01/11 19:07:35;;;;;;;14.68;8.27;;;0.30;99.90;;;;;;7194266;32;20106;-77
2022/01/11 19:11:36;;;;;;;16.15;7.32;;;0.30;99.90;;;;;;7205375;32;20596;-77
2022/01/11 19:15:38;;;;;;;14.93;6.95;;;0.40;99.90;;;;;;7205839;32;20113;-77
2022/01/11 19:19:40;;;;;;;13.95;6.85;;;0.40;99.90;;;;;;7212751;32;20105;-77
2022/01/11 19:23:42;;;;;;;10.50;6.00;;;0.50;99.90;;;;;;7191885;32;20255;-78
2022/01/11 19:27:44;;;;;;;13.82;6.62;;;0.50;99.90;;;;;;7193289;32;20316;-77
2022/01/11 19:31:54;;;;;;;10.88;6.10;;;0.50;99.90;;;;;;7190786;32;20691;-77
2022/01/11 19:35:56;;;;;;;10.15;6.20;;;0.70;99.90;;;;;;7195394;32;20140;-76
2022/01/11 19:40:08;;;;;;;9.95;5.68;;;0.60;99.90;;;;;;7192586;32;20127;-76
2022/01/11 19:44:15;;;;;;;12.10;5.70;;;0.70;99.90;;;;;;7203145;32;20118;-76
2022/01/11 19:48:20;;;;;;;13.45;6.18;;;0.70;99.90;;;;;;7199512;32;20127;-77
2022/01/11 19:52:22;;;;;;;9.20;4.87;;;0.90;99.90;;;;;;7186904;32;20318;-76
2022/01/11 19:56:24;;;;;;;9.52;4.80;;;0.80;99.90;;;;;;7205965;32;20248;-77
2022/01/11 20:00:26;;;;;;;8.15;4.57;;;0.90;99.90;;;;;;7208618;32;20172;-76
2022/01/11 20:04:34;;;;;;;10.00;4.70;;;1.10;99.90;;;;;;7188887;32;20109;-77
2022/01/11 20:08:40;;;;;;;8.38;4.68;;;1.20;99.90;;;;;;7184810;32;20575;-76
2022/01/11 20:12:42;;;;;;;10.15;4.85;;;1.30;99.90;;;;;;7200491;32;20219;-78
2022/01/11 20:16:44;;;;;;;9.65;4.65;;;1.50;99.90;;;;;;7205934;32;20123;-77
2022/01/11 20:20:50;;;;;;;8.40;4.65;;;1.60;99.90;;;;;;7179184;32;20125;-77
2022/01/11 20:29:14;;;;;;;9.55;4.53;;;1.60;99.90;;;;;;7208685;32;20234;-76
2022/01/11 20:33:16;;;;;;;9.38;5.20;;;1.60;99.90;;;;;;7205159;32;20105;-76
2022/01/11 20:37:19;;;;;;;8.15;4.40;;;1.60;99.90;;;;;;7195489;32;20183;-77
2022/01/11 20:41:21;;;;;;;9.15;4.93;;;1.60;99.90;;;;;;7197562;32;20216;-77
2022/01/11 20:45:24;;;;;;;9.20;4.85;;;1.50;99.90;;;;;;7200365;32;20327;-76
2022/01/11 20:49:26;;;;;;;11.55;4.65;;;1.50;99.90;;;;;;7196333;32;20172;-77
2022/01/11 20:53:29;;;;;;;8.48;4.47;;;1.60;99.90;;;;;;7187754;32;20127;-75
2022/01/11 20:57:34;;;;;;;9.90;4.72;;;1.70;99.90;;;;;;7199763;32;20122;-76
2022/01/11 21:01:38;;;;;;;11.48;4.80;;;1.80;99.90;;;;;;7192035;32;20197;-76
2022/01/11 21:05:43;;;;;;;8.88;4.93;;;1.90;99.90;;;;;;7178901;32;20113;-77
2022/01/11 21:09:45;;;;;;;12.18;4.30;;;2.00;99.90;;;;;;7191964;32;20184;-76